createdAt,value
2019-02-02T00:01:57.804Z,2.90
2019-02-02T00:04:26.833Z,2.90
2019-02-02T00:06:55.887Z,2.90
2019-02-02T00:09:24.907Z,2.90
2019-02-02T00:11:53.831Z,2.90
2019-02-02T00:14:22.820Z,2.90
2019-02-02T00:16:51.855Z,3.00
2019-02-02T00:19:20.896Z,3.00
2019-02-02T00:21:49.988Z,3.10
2019-02-02T00:24:19.041Z,3.10
2019-02-02T00:26:48.043Z,3.10
2019-02-02T00:29:17.088Z,3.10
2019-02-02T00:31:46.132Z,3.20
2019-02-02T00:34:15.169Z,3.20
2019-02-02T00:36:44.143Z,3.20
2019-02-02T00:39:15.854Z,3.20
2019-02-02T00:41:44.897Z,3.20
2019-02-02T00:44:14.039Z,3.20
2019-02-02T00:46:43.553Z,3.30
2019-02-02T00:49:12.552Z,3.30
2019-02-02T00:51:41.596Z,3.30
2019-02-02T00:54:10.657Z,3.30
2019-02-02T00:56:39.637Z,3.30
2019-02-02T00:59:08.666Z,3.30
2019-02-02T01:01:37.585Z,3.20
2019-02-02T01:04:07.004Z,3.20
2019-02-02T01:06:36.025Z,3.20
2019-02-02T01:09:14.388Z,3.30
2019-02-02T01:11:47.369Z,3.30
2019-02-02T01:14:21.925Z,3.30
2019-02-02T01:16:50.984Z,3.30
2019-02-02T01:19:20.028Z,3.20
2019-02-02T01:21:49.084Z,3.30
2019-02-02T01:24:37.214Z,3.30
2019-02-02T01:27:06.300Z,3.30
2019-02-02T01:29:35.358Z,3.40
2019-02-02T01:32:04.400Z,3.40
2019-02-02T01:34:33.445Z,3.50
2019-02-02T01:37:02.483Z,3.50
2019-02-02T01:39:31.636Z,3.60
2019-02-02T01:42:00.577Z,3.60
2019-02-02T01:44:29.632Z,3.70
2019-02-02T01:46:58.709Z,3.70
2019-02-02T01:49:33.697Z,3.80
2019-02-02T01:52:02.700Z,3.80
2019-02-02T01:54:31.878Z,3.90
2019-02-02T01:57:00.896Z,4.00
2019-02-02T01:59:29.936Z,4.00
2019-02-02T02:01:58.906Z,4.00
2019-02-02T02:04:27.989Z,4.00
2019-02-02T02:06:57.010Z,4.10
2019-02-02T02:09:26.008Z,4.10
2019-02-02T02:11:55.026Z,4.20
2019-02-02T02:14:24.009Z,4.20
2019-02-02T02:16:53.064Z,4.20
2019-02-02T02:19:22.211Z,4.20
2019-02-02T02:21:51.254Z,4.20
2019-02-02T02:24:20.291Z,4.20
2019-02-02T02:26:49.319Z,4.20
2019-02-02T02:29:18.355Z,4.10
2019-02-02T02:31:50.081Z,4.00
2019-02-02T02:34:19.051Z,4.00
2019-02-02T02:36:48.117Z,4.00
2019-02-02T02:39:17.111Z,4.10
2019-02-02T02:41:46.136Z,4.10
2019-02-02T02:44:17.074Z,4.10
2019-02-02T02:46:46.124Z,4.20
2019-02-02T02:49:15.086Z,4.20
2019-02-02T02:51:44.124Z,4.20
2019-02-02T02:54:13.145Z,4.20
2019-02-02T02:56:42.157Z,4.20
2019-02-02T02:59:11.179Z,4.20
2019-02-02T03:01:40.180Z,4.30
2019-02-02T03:04:09.287Z,4.30
2019-02-02T03:06:38.317Z,4.40
2019-02-02T03:09:09.695Z,4.40
2019-02-02T03:11:41.650Z,4.40
2019-02-02T03:14:10.684Z,4.40
2019-02-02T03:16:39.669Z,4.40
2019-02-02T03:19:08.767Z,4.50
2019-02-02T03:21:37.841Z,4.50
2019-02-02T03:24:06.855Z,4.50
2019-02-02T03:26:35.901Z,4.50
2019-02-02T03:29:04.900Z,4.50
2019-02-02T03:31:34.022Z,4.40
2019-02-02T03:34:02.989Z,4.40
2019-02-02T03:36:32.005Z,4.40
2019-02-02T03:39:01.046Z,4.40
2019-02-02T03:41:49.250Z,4.40
2019-02-02T03:44:18.238Z,4.40
2019-02-02T03:46:47.232Z,4.40
2019-02-02T03:49:35.384Z,4.40
2019-02-02T03:52:04.508Z,4.50
2019-02-02T03:54:33.444Z,4.40
2019-02-02T03:57:02.461Z,4.40
2019-02-02T03:59:31.466Z,4.50
2019-02-02T04:02:00.491Z,4.50
2019-02-02T04:04:29.496Z,4.50
2019-02-02T04:06:58.523Z,4.50
2019-02-02T04:09:30.336Z,4.50
2019-02-02T04:11:59.352Z,4.60
2019-02-02T04:14:28.344Z,4.50
2019-02-02T04:17:00.389Z,4.50
2019-02-02T04:19:29.420Z,4.50
2019-02-02T04:21:58.432Z,4.50
2019-02-02T04:24:27.661Z,4.50
2019-02-02T04:26:56.697Z,4.50
2019-02-02T04:29:25.729Z,4.50
2019-02-02T04:31:54.679Z,4.40
2019-02-02T04:34:23.700Z,4.40
2019-02-02T04:36:52.617Z,4.30
2019-02-02T04:39:21.694Z,4.20
2019-02-02T04:42:09.828Z,4.20
2019-02-02T04:44:38.742Z,4.10
2019-02-02T04:47:07.809Z,4.00
2019-02-02T04:49:36.754Z,4.00
2019-02-02T04:52:05.778Z,4.00
2019-02-02T04:54:34.852Z,3.90
2019-02-02T04:57:04.034Z,3.80
2019-02-02T04:59:33.088Z,3.80
2019-02-02T05:02:02.120Z,3.80
2019-02-02T05:04:31.172Z,3.80
2019-02-02T05:07:00.260Z,3.80
2019-02-02T05:09:29.352Z,3.80
2019-02-02T05:11:58.427Z,3.70
2019-02-02T05:14:27.476Z,3.70
2019-02-02T05:16:56.485Z,3.70
2019-02-02T05:19:25.522Z,3.60
2019-02-02T05:21:54.532Z,3.70
2019-02-02T05:24:25.013Z,3.70
2019-02-02T05:27:13.130Z,3.70
2019-02-02T05:29:42.141Z,3.70
2019-02-02T05:32:11.460Z,3.80
2019-02-02T05:34:40.400Z,3.80
2019-02-02T05:37:28.536Z,3.80
2019-02-02T05:39:57.534Z,3.90
2019-02-02T05:42:26.453Z,4.00
2019-02-02T05:44:55.446Z,4.00
2019-02-02T05:47:24.458Z,4.00
2019-02-02T05:49:53.396Z,4.00
2019-02-02T05:52:22.510Z,4.00
2019-02-02T05:54:51.469Z,4.00
2019-02-02T05:57:20.564Z,3.90
2019-02-02T05:59:52.890Z,3.90
2019-02-02T06:02:20.313Z,3.90
2019-02-02T06:04:49.275Z,4.00
2019-02-02T06:07:18.267Z,4.00
2019-02-02T06:09:47.219Z,4.00
2019-02-02T06:12:16.221Z,4.00
2019-02-02T06:14:45.258Z,4.00
2019-02-02T06:17:14.263Z,4.00
2019-02-02T06:19:43.271Z,4.00
2019-02-02T06:22:12.283Z,4.00
2019-02-02T06:24:41.207Z,4.00
2019-02-02T06:27:10.210Z,4.00
2019-02-02T06:29:39.156Z,3.90
2019-02-02T06:32:11.874Z,4.00
2019-02-02T06:34:39.012Z,4.00
2019-02-02T06:37:08.063Z,4.00
2019-02-02T06:39:37.028Z,4.00
2019-02-02T06:42:06.054Z,4.00
2019-02-02T06:44:35.067Z,4.00
2019-02-02T06:47:04.077Z,4.00
2019-02-02T06:49:33.115Z,4.10
2019-02-02T06:52:02.142Z,4.10
2019-02-02T06:54:33.857Z,4.10
2019-02-02T06:57:01.812Z,4.10
2019-02-02T06:59:30.762Z,4.20
2019-02-02T07:01:59.771Z,4.20
2019-02-02T07:04:28.727Z,4.20
2019-02-02T07:07:05.131Z,4.20
2019-02-02T07:09:34.143Z,4.10
2019-02-02T07:12:03.215Z,4.20
2019-02-02T07:14:32.106Z,4.20
2019-02-02T07:17:01.073Z,4.10
2019-02-02T07:19:30.097Z,4.10
2019-02-02T07:21:58.959Z,4.20
2019-02-02T07:24:27.980Z,4.20
2019-02-02T07:27:02.840Z,4.20
2019-02-02T07:29:50.968Z,4.20
2019-02-02T07:32:19.820Z,4.20
2019-02-02T07:34:48.701Z,4.20
2019-02-02T07:37:17.617Z,4.20
2019-02-02T07:39:46.652Z,4.20
2019-02-02T07:42:15.624Z,4.20
2019-02-02T07:44:44.619Z,4.30
2019-02-02T07:47:13.475Z,4.30
2019-02-02T07:49:42.512Z,4.40
2019-02-02T07:52:11.576Z,4.40
2019-02-02T07:54:40.594Z,4.40
2019-02-02T07:57:09.580Z,4.50
2019-02-02T07:59:38.583Z,4.50
2019-02-02T08:02:08.140Z,4.50
2019-02-02T08:04:42.957Z,4.50
2019-02-02T08:07:11.977Z,4.60
2019-02-02T08:09:41.033Z,4.60
2019-02-02T08:12:09.960Z,4.60
2019-02-02T08:14:38.948Z,4.60
2019-02-02T08:17:07.970Z,4.60
2019-02-02T08:19:36.975Z,4.60
2019-02-02T08:22:06.204Z,4.60
2019-02-02T08:24:35.138Z,4.60
2019-02-02T08:27:08.511Z,4.50
2019-02-02T08:29:37.521Z,4.60
2019-02-02T08:32:07.702Z,4.60
2019-02-02T08:34:36.723Z,4.50
2019-02-02T08:37:05.774Z,4.50
2019-02-02T08:39:34.780Z,4.50
2019-02-02T08:42:03.804Z,4.50
2019-02-02T08:44:32.904Z,4.50
2019-02-02T08:47:01.984Z,4.60
2019-02-02T08:49:30.915Z,4.60
2019-02-02T08:51:59.769Z,4.60
2019-02-02T08:54:28.831Z,4.70
2019-02-02T08:56:57.716Z,4.70
2019-02-02T08:59:26.723Z,4.70
2019-02-02T09:01:55.742Z,4.70
2019-02-02T09:04:24.779Z,4.70
2019-02-02T09:06:53.796Z,4.80
2019-02-02T09:09:22.812Z,4.70
2019-02-02T09:11:51.816Z,4.80
2019-02-02T09:14:20.721Z,4.80
2019-02-02T09:16:49.772Z,4.80
2019-02-02T09:19:18.794Z,4.80
2019-02-02T09:21:47.727Z,4.80
2019-02-02T09:24:16.680Z,4.80
2019-02-02T09:26:45.700Z,4.80
2019-02-02T09:29:14.641Z,4.90
2019-02-02T09:31:43.662Z,4.90
2019-02-02T09:34:12.617Z,4.90
2019-02-02T09:36:41.659Z,4.90
2019-02-02T09:39:10.668Z,4.90
2019-02-02T09:41:40.781Z,4.90
2019-02-02T09:44:10.109Z,4.90
2019-02-02T09:46:39.015Z,4.90
2019-02-02T09:49:14.806Z,5.00
2019-02-02T09:51:43.827Z,5.10
2019-02-02T09:54:12.883Z,5.20
2019-02-02T09:56:41.911Z,5.20
2019-02-02T09:59:10.939Z,5.20
2019-02-02T10:01:39.875Z,5.20
2019-02-02T10:04:08.890Z,5.30
2019-02-02T10:06:37.904Z,5.40
2019-02-02T10:09:09.364Z,5.50
2019-02-02T10:11:38.396Z,5.60
2019-02-02T10:14:07.391Z,5.70
2019-02-02T10:16:36.375Z,5.80
2019-02-02T10:19:05.679Z,6.00
2019-02-02T10:21:34.693Z,6.30
2019-02-02T10:24:03.696Z,6.40
2019-02-02T10:26:32.702Z,6.60
2019-02-02T10:29:02.520Z,6.70
2019-02-02T10:31:39.265Z,6.80
2019-02-02T10:34:02.207Z,6.80
2019-02-02T10:36:31.243Z,6.70
2019-02-02T10:39:05.157Z,6.70
2019-02-02T10:41:34.179Z,6.60
2019-02-02T10:44:03.188Z,6.60
2019-02-02T10:46:32.123Z,6.70
2019-02-02T10:49:20.241Z,6.80
2019-02-02T10:51:49.253Z,6.90
2019-02-02T10:54:18.257Z,7.10
2019-02-02T10:56:47.142Z,7.20
2019-02-02T10:59:16.176Z,7.20
2019-02-02T11:01:51.175Z,7.10
2019-02-02T11:04:16.084Z,7.20
2019-02-02T11:06:45.129Z,7.20
2019-02-02T11:09:14.236Z,7.20
2019-02-02T11:11:43.284Z,7.40
2019-02-02T11:14:12.280Z,7.60
2019-02-02T11:16:41.247Z,7.70
2019-02-02T11:19:10.359Z,7.70
2019-02-02T11:21:39.360Z,7.70
2019-02-02T11:24:08.415Z,7.60
2019-02-02T11:26:37.442Z,7.40
2019-02-02T11:29:06.638Z,7.30
2019-02-02T11:31:37.999Z,7.30
2019-02-02T11:34:06.992Z,7.30
2019-02-02T11:36:35.961Z,7.30
2019-02-02T11:39:06.779Z,7.30
2019-02-02T11:41:35.768Z,7.30
2019-02-02T11:44:04.857Z,7.30
2019-02-02T11:46:33.866Z,7.20
2019-02-02T11:49:02.920Z,7.20
2019-02-02T11:51:31.972Z,7.20
2019-02-02T11:54:00.932Z,7.40
2019-02-02T11:56:29.938Z,7.50
2019-02-02T11:58:58.799Z,7.60
2019-02-02T12:01:27.771Z,7.90
2019-02-02T12:03:56.812Z,8.30
2019-02-02T12:06:25.856Z,8.80
2019-02-02T12:08:54.905Z,9.20
2019-02-02T12:11:23.884Z,9.40
2019-02-02T12:13:52.812Z,9.30
2019-02-02T12:16:21.740Z,9.10
2019-02-02T12:18:50.763Z,9.00
2019-02-02T12:21:19.694Z,8.90
2019-02-02T12:23:48.699Z,8.70
2019-02-02T12:26:17.733Z,8.60
2019-02-02T12:28:46.752Z,8.50
2019-02-02T12:31:15.748Z,8.40
2019-02-02T12:33:44.749Z,8.40
2019-02-02T12:36:13.684Z,8.50
2019-02-02T12:38:42.816Z,8.60
2019-02-02T12:41:11.827Z,8.60
2019-02-02T12:43:40.836Z,8.70
2019-02-02T12:46:10.003Z,8.90
2019-02-02T12:48:39.032Z,9.20
2019-02-02T12:51:07.976Z,9.50
2019-02-02T12:53:37.001Z,9.70
2019-02-02T12:56:06.041Z,9.70
2019-02-02T12:58:35.059Z,9.80
2019-02-02T13:01:04.660Z,9.80
2019-02-02T13:03:33.687Z,9.90
2019-02-02T13:06:02.723Z,10.00
2019-02-02T13:08:31.608Z,10.20
2019-02-02T13:11:00.658Z,10.40
2019-02-02T13:13:29.675Z,10.60
2019-02-02T13:15:58.621Z,10.60
2019-02-02T13:18:27.763Z,10.60
2019-02-02T13:20:56.789Z,10.60
2019-02-02T13:23:25.840Z,10.60
2019-02-02T13:26:05.117Z,10.50
2019-02-02T13:28:25.664Z,10.50
2019-02-02T13:30:54.697Z,10.40
2019-02-02T13:33:23.721Z,10.40
2019-02-02T13:35:52.786Z,10.30
2019-02-02T13:38:21.788Z,10.30
2019-02-02T13:40:50.812Z,10.30
2019-02-02T13:43:19.841Z,10.20
2019-02-02T13:45:48.786Z,10.10
2019-02-02T13:48:19.915Z,10.10
2019-02-02T13:50:48.989Z,10.00
2019-02-02T13:53:18.047Z,9.90
2019-02-02T13:55:47.049Z,9.80
2019-02-02T13:58:16.082Z,9.80
2019-02-02T14:00:44.997Z,9.80
2019-02-02T14:03:13.938Z,9.70
2019-02-02T14:05:42.940Z,9.60
2019-02-02T14:08:11.909Z,9.60
2019-02-02T14:10:40.960Z,9.60
2019-02-02T14:13:09.997Z,9.50
2019-02-02T14:15:39.551Z,9.50
2019-02-02T14:18:08.724Z,9.50
2019-02-02T14:20:37.674Z,9.40
2019-02-02T14:23:06.705Z,9.40
2019-02-02T14:25:35.622Z,9.30
2019-02-02T14:28:04.678Z,9.30
2019-02-02T14:30:33.764Z,9.30
2019-02-02T14:33:13.791Z,9.30
2019-02-02T14:35:35.049Z,9.30
2019-02-02T14:38:04.126Z,9.40
2019-02-02T14:40:36.081Z,9.40
2019-02-02T14:43:05.100Z,9.40
2019-02-02T14:45:34.123Z,9.30
2019-02-02T14:48:04.429Z,9.20
2019-02-02T14:50:33.441Z,9.10
2019-02-02T14:53:02.450Z,9.00
2019-02-02T14:55:31.496Z,8.90
2019-02-02T14:58:00.516Z,8.80
2019-02-02T15:00:30.114Z,8.60
2019-02-02T15:02:59.152Z,8.50
2019-02-02T15:05:28.427Z,8.50
2019-02-02T15:07:57.473Z,8.50
2019-02-02T15:10:26.514Z,8.40
2019-02-02T15:12:55.569Z,8.40
2019-02-02T15:15:24.628Z,8.30
2019-02-02T15:17:53.664Z,8.20
2019-02-02T15:20:30.948Z,8.10
2019-02-02T15:22:59.949Z,8.00
2019-02-02T15:25:29.035Z,8.00
2019-02-02T15:27:58.131Z,7.90
2019-02-02T15:30:35.477Z,7.90
2019-02-02T15:33:05.193Z,7.80
2019-02-02T15:35:34.206Z,7.90
2019-02-02T15:38:03.263Z,7.80
2019-02-02T15:40:32.373Z,7.80
2019-02-02T15:43:01.328Z,7.80
2019-02-02T15:45:30.964Z,7.80
2019-02-02T15:47:59.955Z,7.80
2019-02-02T15:50:28.993Z,7.70
2019-02-02T15:52:57.954Z,7.70
2019-02-02T15:55:27.038Z,7.60
2019-02-02T15:57:56.052Z,7.50
2019-02-02T16:00:27.082Z,7.40
2019-02-02T16:02:56.112Z,7.40
2019-02-02T16:05:25.385Z,7.30
2019-02-02T16:07:54.516Z,7.20
2019-02-02T16:10:25.420Z,7.30
2019-02-02T16:12:54.607Z,7.30
2019-02-02T16:15:23.678Z,7.30
2019-02-02T16:17:52.717Z,7.30
2019-02-02T16:20:23.976Z,7.30
2019-02-02T16:22:53.014Z,7.20
2019-02-02T16:25:22.034Z,7.20
2019-02-02T16:27:51.050Z,7.20
2019-02-02T16:30:21.953Z,7.20
2019-02-02T16:32:50.995Z,7.10
2019-02-02T16:35:39.161Z,7.00
2019-02-02T16:38:08.162Z,7.00
2019-02-02T16:40:37.200Z,6.90
2019-02-02T16:43:06.280Z,6.90
2019-02-02T16:45:35.363Z,6.80
2019-02-02T16:48:04.757Z,6.80
2019-02-02T16:50:33.768Z,6.70
2019-02-02T16:53:02.792Z,6.70
2019-02-02T16:55:31.845Z,6.60
2019-02-02T16:58:00.848Z,6.60
2019-02-02T17:00:31.760Z,6.60
2019-02-02T17:03:19.904Z,6.70
2019-02-02T17:05:48.948Z,6.70
2019-02-02T17:08:18.035Z,6.80
2019-02-02T17:10:47.058Z,6.80
2019-02-02T17:13:16.064Z,6.80
2019-02-02T17:15:45.118Z,6.80
2019-02-02T17:18:14.366Z,6.80
2019-02-02T17:20:44.850Z,6.70
2019-02-02T17:23:13.902Z,6.70
2019-02-02T17:25:42.921Z,6.80
2019-02-02T17:28:11.980Z,6.80
2019-02-02T17:30:41.148Z,6.80
2019-02-02T17:33:12.666Z,6.80
2019-02-02T17:35:41.702Z,6.80
2019-02-02T17:38:10.725Z,6.70
2019-02-02T17:40:39.749Z,6.70
2019-02-02T17:43:08.784Z,6.70
2019-02-02T17:45:37.816Z,6.70
2019-02-02T17:48:08.089Z,6.70
2019-02-02T17:50:37.121Z,6.70
2019-02-02T17:53:06.179Z,6.60
2019-02-02T17:55:35.204Z,6.70
2019-02-02T17:58:04.408Z,6.70
2019-02-02T18:00:40.837Z,6.70
2019-02-02T18:03:09.870Z,6.60
2019-02-02T18:05:38.890Z,6.60
2019-02-02T18:08:07.937Z,6.60
2019-02-02T18:10:36.956Z,6.50
2019-02-02T18:13:05.999Z,6.50
2019-02-02T18:15:54.183Z,6.40
2019-02-02T18:18:23.123Z,6.30
2019-02-02T18:20:52.172Z,6.30
2019-02-02T18:23:21.229Z,6.30
2019-02-02T18:25:50.250Z,6.20
2019-02-02T18:28:19.302Z,6.20
2019-02-02T18:31:07.440Z,6.20
2019-02-02T18:33:36.331Z,6.10
2019-02-02T18:36:05.395Z,6.10
2019-02-02T18:38:34.311Z,6.10
2019-02-02T18:41:06.077Z,6.10
2019-02-02T18:43:54.223Z,6.10
2019-02-02T18:46:31.627Z,6.00
2019-02-02T18:49:00.724Z,6.00
2019-02-02T18:51:29.744Z,6.00
2019-02-02T18:53:58.747Z,6.00
2019-02-02T18:56:27.789Z,6.00
2019-02-02T18:58:56.828Z,6.00
2019-02-02T19:01:25.852Z,6.00
2019-02-02T19:03:54.817Z,6.00
2019-02-02T19:06:23.824Z,6.00
2019-02-02T19:08:52.803Z,6.00
2019-02-02T19:11:21.839Z,6.00
2019-02-02T19:13:50.850Z,6.10
2019-02-02T19:16:19.877Z,6.10
2019-02-02T19:18:48.852Z,6.10
2019-02-02T19:21:17.779Z,6.10
2019-02-02T19:23:46.764Z,6.10
2019-02-02T19:26:15.789Z,6.10
2019-02-02T19:28:44.803Z,6.20
2019-02-02T19:31:13.750Z,6.20
2019-02-02T19:33:42.688Z,6.20
2019-02-02T19:36:11.752Z,6.20
2019-02-02T19:38:41.105Z,6.20
2019-02-02T19:41:10.164Z,6.20
2019-02-02T19:43:39.116Z,6.20
2019-02-02T19:46:08.172Z,6.20
2019-02-02T19:48:39.965Z,6.20
2019-02-02T19:51:28.112Z,6.20
2019-02-02T19:53:57.836Z,6.10
2019-02-02T19:56:26.857Z,6.10
2019-02-02T19:58:55.872Z,6.10
2019-02-02T20:01:24.879Z,6.10
2019-02-02T20:04:13.041Z,6.10
2019-02-02T20:06:42.064Z,6.10
2019-02-02T20:09:11.108Z,6.10
2019-02-02T20:11:40.132Z,6.10
2019-02-02T20:14:09.190Z,6.10
2019-02-02T20:16:57.305Z,6.10
2019-02-02T20:19:26.191Z,6.10
2019-02-02T20:21:55.145Z,6.10
2019-02-02T20:24:24.187Z,6.10
2019-02-02T20:26:53.273Z,6.00
2019-02-02T20:29:22.315Z,6.00
2019-02-02T20:31:51.366Z,6.00
2019-02-02T20:34:20.264Z,6.00
2019-02-02T20:36:49.292Z,6.00
2019-02-02T20:39:18.504Z,5.90
2019-02-02T20:41:48.210Z,5.90
2019-02-02T20:44:17.168Z,5.80
2019-02-02T20:46:46.213Z,5.80
2019-02-02T20:49:15.252Z,5.80
2019-02-02T20:51:44.270Z,5.70
2019-02-02T20:54:13.293Z,5.70
2019-02-02T20:56:42.695Z,5.70
2019-02-02T20:59:11.736Z,5.70
2019-02-02T21:01:40.783Z,5.70
2019-02-02T21:04:09.719Z,5.60
2019-02-02T21:06:38.575Z,5.60
2019-02-02T21:09:08.015Z,5.60
2019-02-02T21:11:36.989Z,5.60
2019-02-02T21:14:06.031Z,5.60
2019-02-02T21:16:34.985Z,5.50
2019-02-02T21:19:04.033Z,5.50
2019-02-02T21:21:33.167Z,5.50
2019-02-02T21:24:21.592Z,5.60
2019-02-02T21:26:50.626Z,5.50
2019-02-02T21:29:19.981Z,5.40
2019-02-02T21:31:49.158Z,5.40
2019-02-02T21:34:18.211Z,5.40
2019-02-02T21:36:47.222Z,5.40
2019-02-02T21:39:16.042Z,5.40
2019-02-02T21:41:45.116Z,5.40
2019-02-02T21:44:14.138Z,5.40
2019-02-02T21:46:46.541Z,5.40
2019-02-02T21:49:15.636Z,5.40
2019-02-02T21:51:44.644Z,5.40
2019-02-02T21:54:13.672Z,5.40
2019-02-02T21:56:42.705Z,5.40
2019-02-02T21:59:11.740Z,5.40
2019-02-02T22:01:40.724Z,5.40
2019-02-02T22:04:09.732Z,5.40
2019-02-02T22:06:44.827Z,5.40
2019-02-02T22:09:13.867Z,5.40
2019-02-02T22:11:42.910Z,5.50
2019-02-02T22:14:23.824Z,5.40
2019-02-02T22:16:52.860Z,5.40
2019-02-02T22:19:21.882Z,5.40
2019-02-02T22:21:56.704Z,5.40
2019-02-02T22:24:25.852Z,5.40
2019-02-02T22:26:54.832Z,5.40
2019-02-02T22:29:23.864Z,5.40
2019-02-02T22:31:52.919Z,5.40
2019-02-02T22:34:21.903Z,5.30
2019-02-02T22:36:51.304Z,5.30
2019-02-02T22:39:20.240Z,5.30
2019-02-02T22:41:49.266Z,5.20
2019-02-02T22:44:24.128Z,5.20
2019-02-02T22:46:53.117Z,5.20
2019-02-02T22:49:41.849Z,5.20
2019-02-02T22:52:10.924Z,5.20
2019-02-02T22:54:39.952Z,5.20
2019-02-02T22:57:09.868Z,5.20
2019-02-02T22:59:38.959Z,5.20
2019-02-02T23:02:12.896Z,5.20
2019-02-02T23:04:52.769Z,5.20
2019-02-02T23:07:50.544Z,5.20
2019-02-02T23:10:47.458Z,5.20
2019-02-02T23:14:09.727Z,5.20
2019-02-02T23:16:38.760Z,5.20
2019-02-02T23:19:07.864Z,5.20
2019-02-02T23:21:37.003Z,5.10
2019-02-02T23:24:06.119Z,5.10
2019-02-02T23:26:39.494Z,5.10
2019-02-02T23:29:09.066Z,5.00
2019-02-02T23:31:38.100Z,5.00
2019-02-02T23:34:07.144Z,5.00
2019-02-02T23:36:36.195Z,5.00
2019-02-02T23:39:08.836Z,5.00
2019-02-02T23:41:57.260Z,4.90
2019-02-02T23:44:26.281Z,4.90
2019-02-02T23:46:55.252Z,4.90
2019-02-02T23:49:24.263Z,4.90
2019-02-02T23:51:53.962Z,4.90
2019-02-02T23:54:22.887Z,4.80
2019-02-02T23:56:51.936Z,4.80
2019-02-02T23:59:20.797Z,4.70
